Time;durP1;ratioP1;P1;durP2;ratioP2;P2;SDS_P1;SDS_P2;PMS_P1;PMS_P2;Temp;Humidity;BMP_temperature;BMP_pressure;BME280_temperature;BME280_humidity;BME280_pressure;Samples;Min_cycle;Max_cycle;Signal;HPM_P1;HPM_P2
2021/12/26 00:01:25;;;;;;;4.45;1.90;;;28.00;64.20;;;;;;4171072;28;20456;-55
2021/12/26 00:03:30;;;;;;;6.22;1.95;;;28.00;63.90;;;;;;4176166;28;20047;-58
2021/12/26 00:05:32;;;;;;;10.75;2.35;;;28.00;63.90;;;;;;4178049;28;20151;-58
2021/12/26 00:07:36;;;;;;;3.95;1.70;;;28.10;64.00;;;;;;4170440;28;20044;-58
2021/12/26 00:09:38;;;;;;;4.35;1.90;;;28.10;64.00;;;;;;4171009;28;20049;-58
2021/12/26 00:11:41;;;;;;;4.97;1.90;;;28.10;64.10;;;;;;4176983;28;20052;-58
2021/12/26 00:13:44;;;;;;;5.05;1.75;;;28.10;64.00;;;;;;4159317;28;20052;-57
2021/12/26 00:15:46;;;;;;;3.88;1.50;;;28.10;64.20;;;;;;4171978;28;20063;-58
2021/12/26 00:17:49;;;;;;;4.78;1.88;;;28.10;64.10;;;;;;4174350;28;20052;-60
2021/12/26 00:19:51;;;;;;;7.07;1.70;;;28.10;64.10;;;;;;4179415;28;20066;-61
2021/12/26 00:21:53;;;;;;;5.00;1.55;;;28.10;64.20;;;;;;4171771;28;20159;-60
2021/12/26 00:23:58;;;;;;;5.28;1.77;;;28.20;64.20;;;;;;4172609;28;20503;-59
2021/12/26 00:26:01;;;;;;;5.55;1.65;;;28.20;64.10;;;;;;4173639;28;20067;-61
2021/12/26 00:28:04;;;;;;;3.22;1.33;;;28.20;64.40;;;;;;4174843;28;20093;-58
2021/12/26 00:30:11;;;;;;;3.03;1.30;;;28.20;64.10;;;;;;4170055;28;20040;-62
2021/12/26 00:32:13;;;;;;;2.25;1.30;;;28.20;64.00;;;;;;4169467;28;20158;-60
2021/12/26 00:34:16;;;;;;;2.67;1.20;;;28.20;64.00;;;;;;4173954;28;20780;-58
2021/12/26 00:36:18;;;;;;;3.28;1.65;;;28.30;64.00;;;;;;4174279;28;20640;-58
2021/12/26 00:38:21;;;;;;;2.53;1.45;;;28.30;64.00;;;;;;4166174;28;20360;-57
2021/12/26 00:40:26;;;;;;;3.90;1.23;;;28.30;64.00;;;;;;4168826;28;20056;-59
2021/12/26 00:42:28;;;;;;;3.15;1.50;;;28.30;64.00;;;;;;4170296;28;20056;-62
2021/12/26 00:44:32;;;;;;;1.92;1.30;;;28.30;64.00;;;;;;4168495;28;20977;-58
2021/12/26 00:46:35;;;;;;;4.85;1.30;;;28.30;63.90;;;;;;4168287;28;20570;-63
2021/12/26 00:48:37;;;;;;;3.80;1.58;;;28.30;64.00;;;;;;4172945;28;20146;-59
2021/12/26 00:50:41;;;;;;;3.50;1.30;;;28.30;64.00;;;;;;4172986;28;20050;-60
2021/12/26 00:52:44;;;;;;;2.60;1.33;;;28.40;64.00;;;;;;4166415;28;20044;-60
2021/12/26 00:54:46;;;;;;;3.35;1.13;;;28.40;64.00;;;;;;4163503;28;20510;-56
2021/12/26 00:56:48;;;;;;;5.77;1.40;;;28.40;64.00;;;;;;4159086;28;20052;-59
2021/12/26 00:58:51;;;;;;;4.20;1.35;;;28.40;64.00;;;;;;4165909;28;20051;-60
2021/12/26 01:00:54;;;;;;;4.75;1.60;;;28.40;64.00;;;;;;4149645;28;20761;-57
2021/12/26 01:02:58;;;;;;;3.88;1.85;;;28.40;63.90;;;;;;4170346;28;20143;-58
2021/12/26 01:05:00;;;;;;;2.95;1.25;;;28.40;63.90;;;;;;4171687;28;20048;-58
2021/12/26 01:07:08;;;;;;;4.07;1.20;;;28.40;63.90;;;;;;4165115;28;21531;-56
2021/12/26 01:09:13;;;;;;;3.40;1.70;;;28.40;64.50;;;;;;4167715;28;20048;-53
2021/12/26 01:11:32;;;;;;;14.43;1.83;;;28.40;63.90;;;;;;4166766;28;20530;-56
2021/12/26 01:13:38;;;;;;;3.42;1.50;;;28.40;63.80;;;;;;4167552;28;20047;-57
2021/12/26 01:15:40;;;;;;;3.30;1.50;;;28.50;63.90;;;;;;4166678;28;20180;-59
2021/12/26 01:17:45;;;;;;;3.53;1.55;;;28.50;63.80;;;;;;4171953;28;20648;-57
2021/12/26 01:19:51;;;;;;;2.55;1.30;;;28.50;63.80;;;;;;4168065;28;22134;-57
2021/12/26 01:21:55;;;;;;;4.88;1.92;;;28.50;64.00;;;;;;4154906;28;20770;-54
2021/12/26 01:24:01;;;;;;;5.47;2.20;;;28.60;63.50;;;;;;4166471;28;20056;-59
2021/12/26 01:26:04;;;;;;;5.88;2.80;;;28.60;62.80;;;;;;4164476;28;20182;-58
2021/12/26 01:28:07;;;;;;;4.75;2.50;;;28.70;62.30;;;;;;4171189;28;20048;-58
2021/12/26 01:30:09;;;;;;;4.00;2.30;;;28.70;62.50;;;;;;4157112;28;20584;-57
2021/12/26 01:32:11;;;;;;;3.63;2.00;;;28.80;62.00;;;;;;4165285;28;20051;-58
2021/12/26 01:34:14;;;;;;;5.50;2.10;;;28.80;62.10;;;;;;4171494;28;20147;-57
2021/12/26 01:36:16;;;;;;;;;;;28.80;62.20;;;;;;4169573;28;20059;-57
2021/12/26 01:38:19;;;;;;;2.90;1.70;;;28.80;61.60;;;;;;4161786;28;19919;-58
2021/12/26 01:40:21;;;;;;;4.63;1.88;;;28.90;62.40;;;;;;4164672;28;20044;-59
2021/12/26 01:42:23;;;;;;;6.38;2.08;;;28.90;62.20;;;;;;4168573;28;20048;-57
2021/12/26 01:44:26;;;;;;;2.95;1.65;;;29.00;62.30;;;;;;4162536;28;20059;-55
2021/12/26 01:46:28;;;;;;;2.57;1.63;;;29.00;62.30;;;;;;4164996;28;20147;-58
2021/12/26 01:48:31;;;;;;;2.75;1.70;;;29.10;62.40;;;;;;4172065;28;20078;-58
2021/12/26 01:50:35;;;;;;;8.82;1.65;;;29.10;62.40;;;;;;4165910;28;20058;-58
2021/12/26 01:52:37;;;;;;;3.83;1.92;;;29.20;62.40;;;;;;4166868;28;20083;-58
2021/12/26 01:54:46;;;;;;;3.92;1.67;;;29.20;62.30;;;;;;4166966;28;20047;-58
2021/12/26 01:56:48;;;;;;;2.42;1.45;;;29.20;62.30;;;;;;4172190;28;20052;-58
2021/12/26 01:58:50;;;;;;;2.47;1.65;;;29.20;62.30;;;;;;4168062;28;20059;-58
2021/12/26 02:01:13;;;;;;;4.00;1.67;;;29.30;62.30;;;;;;4164541;28;20060;-58
2021/12/26 02:03:15;;;;;;;2.25;1.40;;;29.30;62.40;;;;;;4171919;28;20424;-59
2021/12/26 02:05:18;;;;;;;5.20;1.55;;;29.30;62.30;;;;;;4168491;28;20555;-59
2021/12/26 02:07:20;;;;;;;17.35;2.55;;;29.40;62.40;;;;;;4167325;28;20152;-59
2021/12/26 02:09:23;;;;;;;4.80;1.80;;;29.40;61.80;;;;;;4157954;28;20052;-59
2021/12/26 02:11:25;;;;;;;4.97;2.05;;;29.40;60.80;;;;;;4162174;28;20056;-59
2021/12/26 02:13:28;;;;;;;6.03;2.00;;;29.30;58.40;;;;;;4164971;28;20495;-58
2021/12/26 02:15:30;;;;;;;;;;;29.30;56.80;;;;;;4170872;28;20457;-59
2021/12/26 02:17:33;;;;;;;2.67;1.80;;;29.20;55.90;;;;;;4171133;28;20730;-59
2021/12/26 02:19:35;;;;;;;4.28;2.28;;;29.10;54.50;;;;;;4165533;28;20121;-62
2021/12/26 02:28:54;;;;;;;2.88;1.70;;;28.70;52.20;;;;;;4160786;28;20522;-55
2021/12/26 02:30:58;;;;;;;2.67;1.67;;;28.60;51.90;;;;;;4169011;28;20052;-58
2021/12/26 02:33:03;;;;;;;3.50;2.05;;;28.50;51.60;;;;;;4171411;28;20357;-57
2021/12/26 02:35:06;;;;;;;3.55;1.80;;;28.40;51.40;;;;;;4164814;28;21415;-56
2021/12/26 02:37:08;;;;;;;2.88;1.85;;;28.30;51.20;;;;;;4163279;28;20171;-61
2021/12/26 02:39:11;;;;;;;3.03;2.00;;;28.20;51.20;;;;;;4169775;28;20056;-62
2021/12/26 02:41:13;;;;;;;2.35;1.83;;;28.00;51.10;;;;;;4168064;28;20692;-61
2021/12/26 02:43:18;;;;;;;3.25;1.90;;;28.00;51.00;;;;;;4162662;28;20802;-59
2021/12/26 02:45:20;;;;;;;4.45;2.22;;;27.90;51.20;;;;;;4158548;28;20044;-61
2021/12/26 02:47:37;;;;;;;3.83;2.07;;;27.80;51.20;;;;;;4172103;28;20051;-60
2021/12/26 02:49:40;;;;;;;2.47;1.67;;;27.80;51.30;;;;;;4167541;28;20054;-59
2021/12/26 02:51:42;;;;;;;4.00;1.90;;;27.70;51.10;;;;;;4175396;28;20056;-61
2021/12/26 02:53:47;;;;;;;3.03;2.13;;;27.60;51.10;;;;;;4165815;28;20142;-58
2021/12/26 02:55:51;;;;;;;2.90;1.83;;;27.50;51.90;;;;;;4168319;28;20048;-56
2021/12/26 02:58:05;;;;;;;7.53;1.75;;;27.50;52.50;;;;;;4173334;28;20609;-57
2021/12/26 03:00:13;;;;;;;4.07;1.70;;;27.60;53.40;;;;;;4164415;28;21622;-56
2021/12/26 03:02:15;;;;;;;3.05;1.83;;;27.60;53.70;;;;;;4171440;28;20290;-53
2021/12/26 03:04:17;;;;;;;3.10;1.60;;;27.70;54.10;;;;;;4168072;28;21105;-55
2021/12/26 03:06:30;;;;;;;2.88;1.70;;;27.70;54.40;;;;;;4161816;28;20052;-52
2021/12/26 03:08:32;;;;;;;2.08;1.60;;;27.80;54.80;;;;;;4162984;28;20747;-60
2021/12/26 03:10:35;;;;;;;5.85;1.63;;;27.90;55.70;;;;;;4169780;28;20435;-59
2021/12/26 03:12:42;;;;;;;3.63;1.58;;;27.90;55.60;;;;;;4174838;28;22005;-58
2021/12/26 03:14:45;;;;;;;2.83;1.60;;;28.00;55.90;;;;;;4168219;28;21668;-59
2021/12/26 03:16:51;;;;;;;3.72;1.42;;;28.00;56.20;;;;;;4166195;28;20044;-60
2021/12/26 03:18:58;;;;;;;3.28;1.63;;;28.10;56.60;;;;;;4149929;28;20056;-56
2021/12/26 03:21:01;;;;;;;3.13;1.80;;;28.20;56.40;;;;;;4153387;28;20648;-54
2021/12/26 03:23:03;;;;;;;2.95;1.85;;;28.10;55.20;;;;;;4172677;28;20711;-59
2021/12/26 03:25:10;;;;;;;3.75;2.00;;;28.00;54.00;;;;;;4167243;28;20587;-59
2021/12/26 03:27:15;;;;;;;2.90;1.98;;;27.90;53.20;;;;;;4164171;28;20052;-57
2021/12/26 03:29:17;;;;;;;1.85;1.58;;;27.80;52.60;;;;;;4171147;28;20566;-59
2021/12/26 03:31:19;;;;;;;2.47;1.73;;;27.80;52.00;;;;;;4172798;28;20321;-58
2021/12/26 03:33:22;;;;;;;2.85;1.67;;;27.70;51.60;;;;;;4166910;28;20761;-58
2021/12/26 03:35:27;;;;;;;3.03;1.80;;;27.60;50.80;;;;;;4167776;28;20052;-56
2021/12/26 03:37:29;;;;;;;2.75;1.88;;;27.50;51.00;;;;;;4174168;28;20176;-58
2021/12/26 03:39:31;;;;;;;5.07;1.80;;;27.50;51.00;;;;;;4169017;28;20044;-58
2021/12/26 03:41:33;;;;;;;2.65;1.80;;;27.40;50.80;;;;;;4167710;28;20135;-57
2021/12/26 03:43:36;;;;;;;3.00;1.55;;;27.30;50.80;;;;;;4171871;28;20074;-58
2021/12/26 03:45:40;;;;;;;5.70;1.98;;;27.30;51.30;;;;;;4173847;28;20448;-59
2021/12/26 03:47:42;;;;;;;2.10;1.48;;;27.20;51.80;;;;;;4166983;28;20053;-58
2021/12/26 03:49:47;;;;;;;3.37;2.10;;;27.30;52.60;;;;;;4169300;28;20052;-56
2021/12/26 03:51:49;;;;;;;3.92;1.92;;;27.30;53.00;;;;;;4172580;28;20167;-55
2021/12/26 03:53:51;;;;;;;2.58;1.90;;;27.30;53.60;;;;;;4172057;28;20052;-56
2021/12/26 03:55:53;;;;;;;3.42;1.98;;;27.30;52.70;;;;;;4167299;28;20083;-54
2021/12/26 03:57:56;;;;;;;3.03;1.80;;;27.30;52.10;;;;;;4171124;28;20770;-59
2021/12/26 03:59:58;;;;;;;3.08;2.00;;;27.30;51.70;;;;;;4172874;28;20343;-56
2021/12/26 04:02:20;;;;;;;3.50;1.98;;;27.20;50.80;;;;;;4168858;27;20426;-56
2021/12/26 04:04:22;;;;;;;3.47;1.92;;;27.20;51.60;;;;;;4175428;28;20059;-56
2021/12/26 04:06:25;;;;;;;5.30;2.60;;;27.10;51.60;;;;;;4167841;28;20108;-56
2021/12/26 04:08:28;;;;;;;3.60;2.00;;;27.00;51.60;;;;;;4165837;28;20105;-55
2021/12/26 04:10:31;;;;;;;3.75;2.00;;;26.90;52.10;;;;;;4154492;28;20051;-56
2021/12/26 04:12:37;;;;;;;3.85;1.80;;;26.80;52.30;;;;;;4172795;28;21566;-58
2021/12/26 04:14:39;;;;;;;2.80;1.67;;;26.80;53.00;;;;;;4164263;28;20861;-59
2021/12/26 04:16:42;;;;;;;2.20;1.50;;;26.80;53.30;;;;;;4167348;28;20041;-59
2021/12/26 04:18:44;;;;;;;3.10;1.85;;;26.90;53.70;;;;;;4174202;28;20058;-58
2021/12/26 04:20:46;;;;;;;2.90;1.80;;;26.90;54.60;;;;;;4168341;28;20059;-59
2021/12/26 04:22:49;;;;;;;4.07;2.22;;;26.90;53.40;;;;;;4168563;28;20044;-61
2021/12/26 04:24:52;;;;;;;3.40;1.98;;;26.80;52.70;;;;;;4173120;28;20621;-53
2021/12/26 04:26:54;;;;;;;5.40;2.38;;;26.80;52.50;;;;;;4176452;28;20066;-55
2021/12/26 04:28:57;;;;;;;5.55;2.20;;;26.80;52.20;;;;;;4173261;28;20175;-58
2021/12/26 04:30:59;;;;;;;3.63;2.15;;;26.70;52.00;;;;;;4170447;28;20507;-56
2021/12/26 04:33:04;;;;;;;3.20;2.00;;;26.60;51.80;;;;;;4181550;28;20056;-57
2021/12/26 04:35:08;;;;;;;3.65;2.00;;;26.60;51.80;;;;;;4175316;28;20621;-56
2021/12/26 04:37:10;;;;;;;3.30;2.00;;;26.60;51.70;;;;;;4171352;28;20055;-56
2021/12/26 04:39:12;;;;;;;3.07;2.10;;;26.50;51.60;;;;;;4171117;28;20147;-56
2021/12/26 04:41:15;;;;;;;2.63;2.03;;;26.50;51.50;;;;;;4177942;28;20308;-58
2021/12/26 04:43:17;;;;;;;5.22;2.40;;;26.40;51.30;;;;;;4166804;28;20060;-54
2021/12/26 04:45:19;;;;;;;3.30;2.10;;;26.40;51.30;;;;;;4167780;28;20048;-57
2021/12/26 04:47:22;;;;;;;3.07;2.20;;;26.30;51.20;;;;;;4175013;28;20599;-58
2021/12/26 04:49:24;;;;;;;3.38;2.22;;;26.20;51.30;;;;;;4171741;28;20862;-57
2021/12/26 04:51:26;;;;;;;3.50;2.25;;;26.20;51.50;;;;;;4165824;28;20036;-59
2021/12/26 04:53:28;;;;;;;4.07;2.10;;;26.10;51.30;;;;;;4114091;28;20054;-58
2021/12/26 04:55:31;;;;;;;3.65;2.30;;;26.00;51.50;;;;;;4131391;28;20061;-54
2021/12/26 04:57:33;;;;;;;3.72;2.38;;;26.00;51.50;;;;;;4124598;28;20069;-56
2021/12/26 04:59:36;;;;;;;3.97;2.45;;;25.90;51.50;;;;;;4127336;28;20052;-55
2021/12/26 05:01:40;;;;;;;3.90;2.40;;;25.90;51.60;;;;;;4132453;28;20818;-55
2021/12/26 05:03:42;;;;;;;5.18;2.80;;;25.80;51.40;;;;;;4128519;28;21476;-55
2021/12/26 05:05:44;;;;;;;4.30;2.40;;;25.80;51.80;;;;;;4125430;28;20135;-52
2021/12/26 05:07:47;;;;;;;4.70;2.67;;;25.70;51.80;;;;;;4126572;28;20411;-56
2021/12/26 05:09:49;;;;;;;4.85;2.75;;;25.60;51.70;;;;;;4127029;28;20080;-52
2021/12/26 05:11:52;;;;;;;4.22;2.58;;;25.60;51.80;;;;;;4120326;28;20045;-56
2021/12/26 05:13:54;;;;;;;;;;;25.60;51.90;;;;;;4112244;28;20805;-57
2021/12/26 05:15:56;;;;;;;4.10;2.40;;;25.50;51.90;;;;;;4118736;28;20671;-55
2021/12/26 05:17:59;;;;;;;4.70;2.55;;;25.50;51.80;;;;;;4115508;28;20053;-56
2021/12/26 05:20:01;;;;;;;;;;;25.40;51.70;;;;;;4113761;28;20460;-58
2021/12/26 05:22:03;;;;;;;4.88;2.85;;;25.40;51.90;;;;;;4113004;28;19926;-59
2021/12/26 05:24:05;;;;;;;4.38;2.72;;;25.30;51.80;;;;;;4116905;28;20125;-55
2021/12/26 05:26:08;;;;;;;7.18;2.70;;;25.30;51.80;;;;;;4111262;28;20072;-56
2021/12/26 05:28:10;;;;;;;5.03;2.70;;;25.20;51.90;;;;;;4112897;28;20148;-56
2021/12/26 05:30:16;;;;;;;4.47;2.70;;;25.20;51.90;;;;;;4115979;28;20261;-55
2021/12/26 05:32:18;;;;;;;5.25;2.80;;;25.20;51.90;;;;;;4115248;28;20049;-55
2021/12/26 05:34:21;;;;;;;4.57;2.88;;;25.10;52.00;;;;;;4113181;28;20107;-54
2021/12/26 05:36:23;;;;;;;4.95;2.78;;;25.10;52.00;;;;;;4118716;28;20060;-56
2021/12/26 05:38:27;;;;;;;5.43;2.63;;;25.00;52.50;;;;;;4116694;28;20180;-55
2021/12/26 05:40:30;;;;;;;4.25;2.50;;;25.00;53.20;;;;;;4113662;28;20529;-59
2021/12/26 05:42:33;;;;;;;5.22;2.72;;;25.10;53.70;;;;;;4117661;28;20511;-54
2021/12/26 05:44:35;;;;;;;4.57;2.28;;;25.10;54.10;;;;;;4120684;28;20057;-58
2021/12/26 05:46:38;;;;;;;4.37;2.47;;;25.10;54.40;;;;;;4112210;28;20068;-52
2021/12/26 05:48:40;;;;;;;4.60;2.40;;;25.20;54.70;;;;;;4111511;28;20053;-57
2021/12/26 05:50:43;;;;;;;5.72;2.60;;;25.30;55.00;;;;;;4112956;28;20424;-58
2021/12/26 05:52:45;;;;;;;4.05;2.00;;;25.40;55.30;;;;;;4117646;28;20085;-54
2021/12/26 05:54:48;;;;;;;3.15;2.15;;;25.40;55.50;;;;;;4108610;28;20073;-57
2021/12/26 05:56:50;;;;;;;3.55;2.13;;;25.50;55.80;;;;;;4117208;28;20124;-57
2021/12/26 05:58:52;;;;;;;6.68;2.65;;;25.50;55.90;;;;;;4099083;28;20139;-50
2021/12/26 06:00:54;;;;;;;3.88;2.22;;;25.60;56.10;;;;;;4115663;28;20243;-56
2021/12/26 06:02:57;;;;;;;5.57;2.15;;;25.60;56.40;;;;;;4108060;28;20049;-56
2021/12/26 06:04:59;;;;;;;3.83;2.20;;;25.70;56.70;;;;;;4116163;28;20726;-58
2021/12/26 06:07:01;;;;;;;6.10;2.47;;;25.70;56.90;;;;;;4109271;28;20059;-57
2021/12/26 06:09:04;;;;;;;5.80;2.57;;;25.80;57.40;;;;;;4109389;28;20085;-59
2021/12/26 06:11:07;;;;;;;7.28;2.50;;;25.80;57.70;;;;;;4108635;28;20743;-53
2021/12/26 06:13:09;;;;;;;9.35;2.88;;;25.80;57.90;;;;;;4113307;28;20083;-52
2021/12/26 06:15:13;;;;;;;10.88;3.28;;;25.90;58.50;;;;;;4124563;28;20042;-58
2021/12/26 06:17:15;;;;;;;9.27;3.47;;;26.00;58.80;;;;;;4082301;28;20053;-56
2021/12/26 06:19:17;;;;;;;11.40;4.10;;;26.00;59.50;;;;;;4089912;28;20054;-56
2021/12/26 06:21:20;;;;;;;17.73;4.80;;;26.00;61.40;;;;;;4106115;28;20049;-51
2021/12/26 06:23:22;;;;;;;8.25;4.00;;;26.10;62.80;;;;;;4100445;28;20041;-48
2021/12/26 06:25:24;;;;;;;10.23;4.07;;;26.10;63.10;;;;;;4093383;28;20050;-59
2021/12/26 06:27:27;;;;;;;6.85;3.80;;;26.20;62.70;;;;;;4100277;28;20164;-59
2021/12/26 06:29:29;;;;;;;6.82;3.65;;;26.20;63.90;;;;;;4083429;28;20057;-58
2021/12/26 06:31:31;;;;;;;9.65;3.75;;;26.20;64.30;;;;;;4082143;28;20591;-59
2021/12/26 06:33:33;;;;;;;7.20;3.58;;;26.20;64.00;;;;;;4093984;28;20049;-59
2021/12/26 06:35:36;;;;;;;5.65;2.92;;;26.20;63.80;;;;;;4098454;28;22337;-58
2021/12/26 06:37:38;;;;;;;8.70;3.05;;;26.20;63.80;;;;;;4094570;28;20050;-60
2021/12/26 06:39:40;;;;;;;4.30;2.40;;;26.20;63.80;;;;;;4094551;28;20705;-61
2021/12/26 06:41:42;;;;;;;7.25;2.40;;;26.20;63.60;;;;;;4104542;28;20941;-61
2021/12/26 06:43:45;;;;;;;5.68;2.50;;;26.20;63.20;;;;;;4087853;28;21794;-63
2021/12/26 06:45:47;;;;;;;;;;;26.10;63.10;;;;;;4075371;28;20050;-61
2021/12/26 06:47:52;;;;;;;4.32;2.10;;;26.10;63.20;;;;;;4095505;28;19936;-61
2021/12/26 06:49:54;;;;;;;5.07;2.33;;;26.20;63.10;;;;;;4105110;28;20046;-62
2021/12/26 06:51:56;;;;;;;5.07;2.28;;;26.10;63.10;;;;;;4094697;28;20208;-62
2021/12/26 06:53:58;;;;;;;5.30;2.25;;;26.10;63.20;;;;;;4094758;28;20116;-62
2021/12/26 06:56:01;;;;;;;4.53;2.17;;;26.20;63.20;;;;;;4079304;28;20540;-61
2021/12/26 06:58:03;;;;;;;4.18;1.85;;;26.20;63.00;;;;;;4102784;28;20454;-60
2021/12/26 07:02:14;;;;;;;3.33;2.00;;;26.20;62.00;;;;;;4166596;27;20443;-60
2021/12/26 07:04:16;;;;;;;3.50;1.93;;;26.20;62.50;;;;;;4134288;28;20837;-63
2021/12/26 07:06:19;;;;;;;3.88;1.90;;;26.20;62.40;;;;;;4162729;28;20800;-61
2021/12/26 07:08:22;;;;;;;3.38;1.83;;;26.20;62.20;;;;;;4153260;28;20049;-60
2021/12/26 07:10:25;;;;;;;3.70;1.60;;;26.20;62.00;;;;;;4134033;28;20144;-62
2021/12/26 07:12:27;;;;;;;4.95;1.60;;;26.20;62.10;;;;;;4136806;28;20059;-61
2021/12/26 07:14:29;;;;;;;4.53;1.73;;;26.30;62.10;;;;;;4128593;28;20159;-62
2021/12/26 07:16:31;;;;;;;2.30;1.50;;;26.30;62.10;;;;;;4137903;28;22041;-63
2021/12/26 07:18:33;;;;;;;2.13;1.10;;;26.30;61.70;;;;;;4155729;28;20467;-61
2021/12/26 07:20:37;;;;;;;3.72;1.80;;;26.30;61.10;;;;;;4139443;28;20476;-62
2021/12/26 07:22:40;;;;;;;3.70;1.02;;;26.30;61.40;;;;;;4142613;28;20853;-61
2021/12/26 07:24:43;;;;;;;2.78;1.52;;;26.30;61.40;;;;;;4150835;28;20444;-59
2021/12/26 07:26:46;;;;;;;6.82;1.70;;;26.30;61.20;;;;;;4137068;28;20056;-56
2021/12/26 07:28:48;;;;;;;3.63;1.80;;;26.30;61.20;;;;;;4160647;28;20045;-61
2021/12/26 07:30:51;;;;;;;7.13;1.80;;;26.20;61.40;;;;;;4141722;28;21556;-61
2021/12/26 07:32:53;;;;;;;6.47;2.10;;;26.20;61.20;;;;;;4137332;28;20067;-60
2021/12/26 07:34:55;;;;;;;7.47;1.80;;;26.20;61.30;;;;;;4155605;28;20684;-61
2021/12/26 07:36:57;;;;;;;7.17;1.90;;;26.20;61.40;;;;;;4164600;28;20742;-62
2021/12/26 07:39:00;;;;;;;6.72;2.10;;;26.20;61.40;;;;;;4158196;28;21970;-60
2021/12/26 07:41:02;;;;;;;5.72;2.20;;;26.20;61.70;;;;;;4137644;28;20048;-60
2021/12/26 07:43:04;;;;;;;6.70;1.70;;;26.20;61.70;;;;;;4156955;28;20189;-61
2021/12/26 07:45:07;;;;;;;4.95;1.92;;;26.20;61.60;;;;;;4145689;28;20045;-62
2021/12/26 07:47:09;;;;;;;4.78;2.15;;;26.20;61.70;;;;;;4152242;28;20371;-58
2021/12/26 07:49:12;;;;;;;7.43;2.50;;;26.20;62.00;;;;;;4147069;28;20045;-60
2021/12/26 07:51:14;;;;;;;4.13;1.98;;;26.20;62.00;;;;;;4157480;28;20825;-61
2021/12/26 07:53:16;;;;;;;6.25;2.33;;;26.20;62.50;;;;;;4143083;28;20393;-60
2021/12/26 07:55:19;;;;;;;6.65;2.38;;;26.20;62.60;;;;;;4133867;28;20060;-60
2021/12/26 07:57:21;;;;;;;5.28;1.85;;;26.20;62.60;;;;;;4132450;28;20076;-61
2021/12/26 07:59:24;;;;;;;5.65;2.15;;;26.20;62.80;;;;;;4157031;28;20126;-61
2021/12/26 08:01:29;;;;;;;4.68;2.08;;;26.20;62.90;;;;;;4136431;28;20179;-58
2021/12/26 08:03:35;;;;;;;3.40;1.50;;;26.10;62.60;;;;;;4134732;28;20776;-61
2021/12/26 08:05:37;;;;;;;7.43;1.85;;;26.10;62.60;;;;;;4137291;28;20150;-60
2021/12/26 08:07:39;;;;;;;7.45;1.88;;;26.20;62.60;;;;;;4159838;28;20041;-58
2021/12/26 08:09:42;;;;;;;3.80;1.60;;;26.20;62.50;;;;;;4146394;28;20049;-60
2021/12/26 08:11:44;;;;;;;7.90;1.88;;;26.20;62.50;;;;;;4155160;28;20687;-59
2021/12/26 08:13:46;;;;;;;6.00;1.70;;;26.20;62.70;;;;;;4144934;28;20055;-59
2021/12/26 08:15:49;;;;;;;4.03;1.58;;;26.20;62.80;;;;;;4147754;28;20066;-60
2021/12/26 08:17:51;;;;;;;8.50;1.70;;;26.20;62.50;;;;;;4129622;28;20053;-60
2021/12/26 08:19:53;;;;;;;6.30;1.97;;;26.20;62.30;;;;;;4125725;28;20049;-61
2021/12/26 08:21:55;;;;;;;5.07;1.70;;;26.20;62.20;;;;;;4124329;28;20087;-60
2021/12/26 08:23:57;;;;;;;4.60;1.65;;;26.20;62.10;;;;;;4154442;28;20575;-61
2021/12/26 08:26:00;;;;;;;7.05;2.03;;;26.10;62.10;;;;;;4143180;28;22045;-60
2021/12/26 08:28:02;;;;;;;4.15;1.83;;;26.10;62.20;;;;;;4146039;28;20076;-59
2021/12/26 08:30:06;;;;;;;5.22;1.90;;;26.10;62.20;;;;;;4147039;28;20057;-62
2021/12/26 08:32:14;;;;;;;5.50;2.00;;;26.10;62.20;;;;;;4136595;28;20057;-61
2021/12/26 08:34:21;;;;;;;6.45;1.75;;;26.10;62.20;;;;;;4133802;28;20068;-61
2021/12/26 08:36:23;;;;;;;3.90;1.75;;;26.10;62.20;;;;;;4142780;28;20052;-61
2021/12/26 08:38:25;;;;;;;4.85;1.52;;;26.10;62.20;;;;;;4143469;28;20052;-61
2021/12/26 08:40:28;;;;;;;5.53;1.67;;;26.10;62.10;;;;;;4150066;28;20076;-60
2021/12/26 08:42:30;;;;;;;5.78;2.05;;;26.10;62.10;;;;;;4138032;28;20483;-59
2021/12/26 08:44:34;;;;;;;7.90;1.88;;;26.10;62.00;;;;;;4149623;28;20069;-62
2021/12/26 08:46:36;;;;;;;5.20;1.90;;;26.10;62.00;;;;;;4149709;28;20130;-61
2021/12/26 08:48:39;;;;;;;6.53;2.20;;;26.10;62.00;;;;;;4142911;28;20076;-57
2021/12/26 08:50:43;;;;;;;6.47;1.60;;;26.10;62.00;;;;;;4154310;28;20052;-58
2021/12/26 08:52:45;;;;;;;5.00;1.75;;;26.10;61.90;;;;;;4130177;28;20037;-61
2021/12/26 08:54:47;;;;;;;8.95;1.80;;;26.10;61.70;;;;;;4136458;28;20111;-62
2021/12/26 08:56:50;;;;;;;5.53;1.60;;;26.10;61.60;;;;;;4138018;28;20742;-59
2021/12/26 08:58:52;;;;;;;5.57;1.63;;;26.10;61.60;;;;;;4146873;28;20391;-58
2021/12/26 09:00:55;;;;;;;7.40;1.60;;;26.10;61.60;;;;;;4121003;28;20590;-61
2021/12/26 09:02:57;;;;;;;5.95;1.90;;;26.00;61.60;;;;;;4142373;28;20051;-58
2021/12/26 09:04:59;;;;;;;7.78;1.80;;;26.10;62.30;;;;;;4153869;28;20099;-61
2021/12/26 09:07:01;;;;;;;5.65;1.77;;;26.10;61.80;;;;;;4153696;28;20082;-56
2021/12/26 09:09:04;;;;;;;7.63;1.77;;;26.10;61.60;;;;;;4157965;28;20051;-59
2021/12/26 09:11:06;;;;;;;;;;;26.10;61.50;;;;;;4139394;28;20214;-59
2021/12/26 09:13:08;;;;;;;3.92;1.50;;;26.10;61.70;;;;;;4153384;28;19924;-61
2021/12/26 09:15:13;;;;;;;5.67;1.50;;;26.10;61.60;;;;;;4154155;28;20048;-60
2021/12/26 09:17:15;;;;;;;13.90;1.60;;;26.10;61.50;;;;;;4158810;28;20752;-60
2021/12/26 09:19:17;;;;;;;3.97;1.42;;;26.10;61.30;;;;;;4153429;28;20048;-60
2021/12/26 09:21:19;;;;;;;3.80;1.67;;;26.10;61.20;;;;;;4152981;28;20163;-62
2021/12/26 09:23:21;;;;;;;4.18;1.63;;;26.10;61.20;;;;;;4156525;28;20108;-57
2021/12/26 09:25:25;;;;;;;5.35;1.73;;;26.10;61.90;;;;;;4153680;28;20133;-56
2021/12/26 09:27:27;;;;;;;5.03;1.67;;;26.10;62.00;;;;;;4148828;28;20056;-56
2021/12/26 09:29:30;;;;;;;3.22;1.17;;;26.10;61.80;;;;;;4153394;28;20056;-57
2021/12/26 09:31:32;;;;;;;4.47;1.38;;;26.10;61.60;;;;;;4153554;28;20056;-57
2021/12/26 09:33:34;;;;;;;3.22;1.40;;;26.10;61.50;;;;;;4150020;28;20611;-55
2021/12/26 09:35:36;;;;;;;3.92;1.50;;;26.10;61.40;;;;;;4131722;28;20067;-51
2021/12/26 09:37:38;;;;;;;3.95;1.30;;;26.10;61.40;;;;;;4138418;28;20201;-54
2021/12/26 09:39:41;;;;;;;4.50;1.40;;;26.10;61.30;;;;;;4151093;28;20048;-56
2021/12/26 09:41:44;;;;;;;4.05;1.33;;;26.10;61.30;;;;;;4132013;28;20584;-55
2021/12/26 09:43:46;;;;;;;2.17;0.80;;;26.10;60.60;;;;;;4155371;28;20054;-57
2021/12/26 09:45:48;;;;;;;3.27;1.10;;;26.10;61.20;;;;;;4135079;28;20061;-55
2021/12/26 09:47:51;;;;;;;2.47;0.90;;;26.10;61.20;;;;;;4129835;28;20084;-58
2021/12/26 09:49:53;;;;;;;5.53;1.52;;;26.10;61.10;;;;;;4150038;28;20171;-59
2021/12/26 09:51:55;;;;;;;3.47;1.00;;;26.10;61.10;;;;;;4138902;28;20056;-55
2021/12/26 09:53:57;;;;;;;2.90;1.20;;;26.10;61.00;;;;;;4145420;28;20057;-58
2021/12/26 09:55:59;;;;;;;3.67;1.30;;;26.10;61.70;;;;;;4148930;28;20598;-60
2021/12/26 09:58:02;;;;;;;4.10;1.43;;;26.10;61.00;;;;;;4152290;28;20048;-56
2021/12/26 10:02:18;;;;;;;5.40;1.58;;;26.00;60.40;;;;;;4161113;27;20839;-55
2021/12/26 10:04:26;;;;;;;5.65;1.73;;;26.00;61.10;;;;;;4149035;28;20054;-50
2021/12/26 10:06:33;;;;;;;6.85;1.60;;;26.00;61.20;;;;;;4142103;28;20104;-54
2021/12/26 10:08:56;;;;;;;2.80;1.15;;;26.00;61.50;;;;;;4148434;28;20083;-55
2021/12/26 10:11:15;;;;;;;5.55;1.65;;;26.00;61.30;;;;;;4142269;28;20060;-48
2021/12/26 10:13:38;;;;;;;6.07;1.60;;;26.00;61.30;;;;;;4149167;28;20179;-57
2021/12/26 10:15:49;;;;;;;5.22;1.35;;;26.00;61.40;;;;;;4152922;28;20510;-59
2021/12/26 10:17:52;;;;;;;5.90;1.58;;;26.00;61.10;;;;;;4155622;28;20049;-51
2021/12/26 10:20:10;;;;;;;5.67;1.40;;;26.00;61.20;;;;;;4145286;28;20048;-51
2021/12/26 10:22:21;;;;;;;3.55;1.17;;;26.00;61.20;;;;;;4154030;28;20718;-52
2021/12/26 10:24:27;;;;;;;3.97;1.42;;;26.00;61.60;;;;;;4140280;28;20184;-50
2021/12/26 10:26:32;;;;;;;4.88;1.40;;;26.00;61.60;;;;;;4140774;28;20135;-56
2021/12/26 10:28:35;;;;;;;6.05;1.75;;;26.00;62.00;;;;;;4138168;28;20186;-56
2021/12/26 10:30:43;;;;;;;6.30;1.42;;;26.00;61.90;;;;;;4146472;28;20048;-58
2021/12/26 10:32:46;;;;;;;2.55;1.30;;;26.00;62.10;;;;;;4146234;28;20469;-54
2021/12/26 10:34:57;;;;;;;2.22;1.13;;;26.00;62.10;;;;;;4142810;28;20142;-54
2021/12/26 10:37:01;;;;;;;2.72;1.00;;;26.00;62.90;;;;;;4139111;28;20070;-57
2021/12/26 10:39:15;;;;;;;3.55;1.20;;;26.00;62.10;;;;;;4139540;28;20148;-57
2021/12/26 10:41:26;;;;;;;3.53;1.17;;;26.00;62.10;;;;;;4135334;28;20060;-55
2021/12/26 10:43:47;;;;;;;5.40;1.63;;;26.00;62.20;;;;;;4138963;28;20059;-46
2021/12/26 10:45:50;;;;;;;3.72;1.52;;;26.10;62.30;;;;;;4137646;28;21124;-51
2021/12/26 10:47:58;;;;;;;3.30;1.40;;;26.00;62.20;;;;;;4133284;28;20060;-54
2021/12/26 10:50:11;;;;;;;3.35;1.25;;;26.10;62.10;;;;;;4135989;28;20454;-54
2021/12/26 10:52:21;;;;;;;5.35;1.63;;;26.10;62.00;;;;;;4137234;28;20041;-53
2021/12/26 10:54:26;;;;;;;2.80;1.27;;;26.10;62.00;;;;;;4138559;28;20049;-50
2021/12/26 10:56:28;;;;;;;6.43;1.80;;;26.10;62.60;;;;;;4146211;28;20059;-54